首页
METAR-TAF:

METAR-TAF

机场 :

格拉茨, 奥地利

纬度: 47-00N, 经度: 015-26E, 海拔: 340米

当前天气观测

该预报发布于17分钟前的01:20 UTC
风速1节,风向多变
温度 10°C
湿度 87%
气压 1014 hPa
能见度10公里或以上

METAR: LOWG 250120Z AUTO VRB01KT 9999 NSC 10/08 Q1014

时间: 03:37 (01:37 UTC)

预报

该预报发布于2小时和22分钟前的23:15 UTC
预报有效从25日的 00点(UTC)到 25日的 24点(UTC)
风速2节,风向多变
能见度10公里或以上
1500米以下无云,无积雨云
短暂存在
从 25日的 11点(UTC)到 25日的 17点(UTC)
风速7节,风向南转南东
能见度10公里或以上
少量云层高于6000英尺, 塔状积云.
多云层高于22000英尺

TAF: LOWG 242315Z 2500/2524 VRB02KT CAVOK TX22/2513Z TN10/2503Z TEMPO 2511/2517 16007KT 9999 FEW060TCU BKN220

超过4000个机场的气象观测和天气预报(METAR&TAF报告)。

可查询的气象台以黄色和红色小点在地图上表示。

将鼠标移到小点上方,可查看气象台名称。

然后点击查看天气观测和预报。

如需切换地图:点击带黑十字的绿色按钮放大地图;点击带横线的绿色按钮缩小地图;或者点击绿色箭头查看邻近地区的地图。


METAR-TAF: